createdAt,value
2023-02-11T08:32:46.337Z,95156.00
2023-02-11T08:32:57.665Z,95162.00
2023-02-11T08:33:09.263Z,95158.00
2023-02-11T08:33:20.565Z,95160.00
2023-02-11T08:33:32.166Z,95156.00
2023-02-11T08:33:43.497Z,95158.00
2023-02-11T08:33:55.076Z,95158.00
2023-02-11T08:34:06.415Z,95156.00
2023-02-11T08:34:18.025Z,95156.00
2023-02-11T08:34:29.356Z,95158.00
2023-02-11T08:34:40.956Z,95158.00
2023-02-11T08:34:52.285Z,95156.00
2023-02-11T08:35:03.883Z,95162.00
2023-02-11T08:35:15.188Z,95160.00
2023-02-11T08:35:26.783Z,95160.00
2023-02-11T08:35:38.092Z,95158.00
2023-02-11T08:35:49.692Z,95160.00
2023-02-11T08:36:01.009Z,95160.00
2023-02-11T08:36:12.660Z,95160.00
2023-02-11T08:36:23.951Z,95160.00
2023-02-11T08:36:35.628Z,95158.00
2023-02-11T08:36:46.924Z,95162.00
2023-02-11T08:36:58.521Z,95158.00
2023-02-11T08:37:09.897Z,95160.00
2023-02-11T08:37:21.497Z,95158.00
2023-02-11T08:37:33.187Z,95160.00
2023-02-11T08:37:44.773Z,95160.00
2023-02-11T08:37:56.148Z,95158.00
2023-02-11T08:38:07.747Z,95158.00
2023-02-11T08:38:19.093Z,95160.00
2023-02-11T08:38:30.669Z,95158.00
2023-02-11T08:38:41.991Z,95158.00
2023-02-11T08:38:53.604Z,95160.00
2023-02-11T08:39:18.014Z,95160.00
2023-02-11T08:39:19.727Z,95156.00
2023-02-11T08:39:27.472Z,95160.00
2023-02-11T08:39:38.816Z,95158.00
2023-02-11T08:39:50.407Z,95158.00
2023-02-11T08:40:01.756Z,95160.00
2023-02-11T08:40:13.337Z,95158.00
2023-02-11T08:40:24.771Z,95158.00
2023-02-11T08:40:36.387Z,95158.00
2023-02-11T08:40:47.695Z,95158.00
2023-02-11T08:40:59.276Z,95158.00
2023-02-11T08:41:10.610Z,95158.00
2023-02-11T08:41:22.224Z,95158.00
2023-02-11T08:41:33.544Z,95158.00
2023-02-11T08:41:45.115Z,95160.00
2023-02-11T08:41:56.448Z,95158.00
2023-02-11T08:42:08.041Z,95156.00
2023-02-11T08:42:19.342Z,95156.00
2023-02-11T08:42:30.917Z,95158.00
2023-02-11T08:42:42.244Z,95158.00
2023-02-11T08:42:53.822Z,95156.00
2023-02-11T08:43:07.893Z,95156.00
2023-02-11T08:43:15.165Z,95158.00
2023-02-11T08:43:26.499Z,95156.00
2023-02-11T08:43:38.068Z,95156.00
2023-02-11T08:43:49.394Z,95156.00
2023-02-11T08:44:00.975Z,95156.00
2023-02-11T08:44:12.297Z,95156.00
2023-02-11T08:44:23.918Z,95154.00
2023-02-11T08:44:35.209Z,95160.00
2023-02-11T08:44:46.800Z,95160.00
2023-02-11T08:44:58.132Z,95162.00
2023-02-11T08:45:09.706Z,95158.00
2023-02-11T08:45:21.047Z,95158.00
2023-02-11T08:45:32.691Z,95158.00
2023-02-11T08:45:44.096Z,95158.00
2023-02-11T08:45:55.811Z,95156.00
2023-02-11T08:46:07.196Z,95156.00
2023-02-11T08:46:18.870Z,95158.00
2023-02-11T08:46:30.240Z,95154.00
2023-02-11T08:46:41.846Z,95156.00
2023-02-11T08:46:53.182Z,95156.00
2023-02-11T08:47:04.765Z,95152.00
2023-02-11T08:47:16.084Z,95154.00
2023-02-11T08:47:27.678Z,95156.00
2023-02-11T08:47:38.985Z,95154.00
2023-02-11T08:47:50.589Z,95154.00
2023-02-11T08:48:01.910Z,95154.00
2023-02-11T08:48:13.495Z,95154.00
2023-02-11T08:48:24.838Z,95152.00
2023-02-11T08:48:36.412Z,95154.00
2023-02-11T08:48:47.770Z,95154.00
2023-02-11T08:48:59.366Z,95152.00
2023-02-11T08:49:10.702Z,95154.00
2023-02-11T08:49:22.323Z,95152.00
2023-02-11T08:49:33.638Z,95154.00
2023-02-11T08:49:45.243Z,95156.00
2023-02-11T08:49:56.569Z,95154.00
2023-02-11T08:50:08.151Z,95156.00
2023-02-11T08:50:19.485Z,95156.00
2023-02-11T08:50:31.078Z,95154.00
2023-02-11T08:50:42.410Z,95156.00
2023-02-11T08:50:53.994Z,95156.00
2023-02-11T08:51:05.305Z,95156.00
2023-02-11T08:51:16.900Z,95156.00
2023-02-11T08:51:28.210Z,95156.00
2023-02-11T08:51:39.773Z,95156.00
2023-02-11T08:51:51.146Z,95154.00
2023-02-11T08:52:02.729Z,95156.00
2023-02-11T08:52:14.084Z,95156.00
2023-02-11T08:52:25.698Z,95154.00
2023-02-11T08:52:37.008Z,95154.00
2023-02-11T08:52:48.590Z,95156.00
2023-02-11T08:52:59.922Z,95156.00
2023-02-11T08:53:11.508Z,95156.00
2023-02-11T08:53:22.828Z,95154.00
2023-02-11T08:53:34.424Z,95156.00
2023-02-11T08:53:45.766Z,95158.00
2023-02-11T08:53:57.351Z,95156.00
2023-02-11T08:54:08.680Z,95156.00
2023-02-11T08:54:20.345Z,95156.00
2023-02-11T08:54:31.634Z,95154.00
2023-02-11T08:54:43.227Z,95156.00
2023-02-11T08:54:54.556Z,95158.00
2023-02-11T08:55:06.159Z,95154.00
2023-02-11T08:55:17.482Z,95156.00
2023-02-11T08:55:29.062Z,95154.00
2023-02-11T08:55:40.400Z,95156.00
2023-02-11T08:55:52.372Z,95160.00
2023-02-11T08:56:04.098Z,95156.00
2023-02-11T08:56:15.462Z,95158.00
2023-02-11T08:56:27.050Z,95158.00
2023-02-11T08:56:38.394Z,95156.00
2023-02-11T08:56:49.946Z,95158.00
2023-02-11T08:57:01.262Z,95156.00
2023-02-11T08:57:12.844Z,95156.00
2023-02-11T08:57:24.298Z,95158.00
2023-02-11T08:57:35.899Z,95156.00
2023-02-11T08:57:47.205Z,95156.00
2023-02-11T08:57:58.778Z,95156.00
2023-02-11T08:58:10.098Z,95154.00
2023-02-11T08:58:21.703Z,95154.00
2023-02-11T08:58:33.036Z,95154.00
2023-02-11T08:58:44.625Z,95152.00
2023-02-11T08:58:55.921Z,95144.00
2023-02-11T08:59:07.499Z,95152.00
2023-02-11T08:59:18.850Z,95152.00
2023-02-11T08:59:30.449Z,95154.00
2023-02-11T08:59:41.770Z,95152.00
2023-02-11T08:59:53.355Z,95154.00
2023-02-11T09:00:04.740Z,95152.00
2023-02-11T09:00:16.285Z,95152.00
2023-02-11T09:00:27.613Z,95144.00
2023-02-11T09:00:39.185Z,95152.00
2023-02-11T09:00:51.018Z,95152.00
2023-02-11T09:01:02.747Z,95144.00
2023-02-11T09:01:14.115Z,95156.00
2023-02-11T09:01:25.794Z,95152.00
2023-02-11T09:01:37.305Z,95152.00
2023-02-11T09:01:49.048Z,95156.00
2023-02-11T09:02:00.533Z,95154.00
2023-02-11T09:02:12.112Z,95156.00
2023-02-11T09:02:23.525Z,95152.00
2023-02-11T09:02:35.205Z,95154.00
2023-02-11T09:02:46.547Z,95152.00
2023-02-11T09:02:58.201Z,95152.00
2023-02-11T09:03:09.526Z,95154.00
2023-02-11T09:03:21.122Z,95154.00
2023-02-11T09:03:32.455Z,95156.00
2023-02-11T09:03:44.021Z,95156.00
2023-02-11T09:03:55.354Z,95154.00
2023-02-11T09:04:06.967Z,95154.00
2023-02-11T09:04:18.321Z,95156.00
2023-02-11T09:04:29.927Z,95152.00
2023-02-11T09:04:41.246Z,95154.00
2023-02-11T09:04:52.812Z,95154.00
2023-02-11T09:05:04.158Z,95152.00
2023-02-11T09:05:15.738Z,95154.00
2023-02-11T09:05:27.058Z,95152.00
2023-02-11T09:05:38.638Z,95152.00
2023-02-11T09:05:49.985Z,95154.00
2023-02-11T09:06:01.726Z,95158.00
2023-02-11T09:06:13.031Z,95156.00
2023-02-11T09:06:24.628Z,95156.00
2023-02-11T09:06:35.949Z,95154.00
2023-02-11T09:06:47.565Z,95156.00
2023-02-11T09:06:58.907Z,95154.00
2023-02-11T09:07:10.494Z,95156.00
2023-02-11T09:07:21.832Z,95154.00
2023-02-11T09:07:33.394Z,95156.00
2023-02-11T09:07:44.719Z,95156.00
2023-02-11T09:07:56.300Z,95154.00
2023-02-11T09:08:07.615Z,95152.00
2023-02-11T09:08:19.178Z,95156.00
2023-02-11T09:08:30.492Z,95154.00
2023-02-11T09:08:43.710Z,95156.00
2023-02-11T09:08:52.398Z,95152.00
2023-02-11T09:09:03.728Z,95154.00
2023-02-11T09:09:15.307Z,95156.00
2023-02-11T09:09:26.632Z,95156.00
2023-02-11T09:09:38.237Z,95152.00
2023-02-11T09:09:49.567Z,95154.00
2023-02-11T09:10:01.142Z,95154.00
2023-02-11T09:10:12.458Z,95158.00
2023-02-11T09:10:24.064Z,95156.00
2023-02-11T09:10:35.382Z,95156.00
2023-02-11T09:10:46.974Z,95154.00
2023-02-11T09:10:58.294Z,95156.00
2023-02-11T09:11:09.879Z,95154.00
2023-02-11T09:11:21.206Z,95158.00
2023-02-11T09:11:32.818Z,95156.00
2023-02-11T09:11:44.158Z,95160.00
2023-02-11T09:11:55.748Z,95158.00
2023-02-11T09:12:07.085Z,95158.00
2023-02-11T09:12:18.679Z,95158.00
2023-02-11T09:12:30.004Z,95156.00
2023-02-11T09:12:41.588Z,95158.00
2023-02-11T09:12:52.948Z,95158.00
2023-02-11T09:13:04.499Z,95158.00
2023-02-11T09:13:15.806Z,95158.00
2023-02-11T09:13:27.392Z,95156.00
2023-02-11T09:13:38.716Z,95156.00
2023-02-11T09:13:53.261Z,95158.00
2023-02-11T09:14:01.255Z,95154.00
2023-02-11T09:14:12.596Z,95156.00
2023-02-11T09:14:24.180Z,95154.00
2023-02-11T09:14:35.491Z,95156.00
2023-02-11T09:14:47.080Z,95154.00
2023-02-11T09:14:58.404Z,95156.00
2023-02-11T09:15:10.020Z,95154.00
2023-02-11T09:15:21.376Z,95154.00
2023-02-11T09:15:32.952Z,95154.00
2023-02-11T09:15:44.290Z,95154.00
2023-02-11T09:15:55.856Z,95158.00
2023-02-11T09:16:07.162Z,95154.00
2023-02-11T09:16:18.776Z,95158.00
2023-02-11T09:16:30.089Z,95158.00
2023-02-11T09:16:41.713Z,95158.00
2023-02-11T09:16:53.079Z,95160.00
2023-02-11T09:17:04.791Z,95158.00
2023-02-11T09:17:16.119Z,95158.00
2023-02-11T09:17:27.680Z,95158.00
2023-02-11T09:17:39.026Z,95156.00
2023-02-11T09:17:50.607Z,95160.00
2023-02-11T09:18:01.972Z,95158.00
2023-02-11T09:18:13.542Z,95158.00
2023-02-11T09:18:24.906Z,95160.00
2023-02-11T09:18:36.501Z,95158.00
2023-02-11T09:18:47.918Z,95156.00
2023-02-11T09:18:59.480Z,95160.00
2023-02-11T09:19:10.797Z,95158.00
2023-02-11T09:19:22.356Z,95160.00
2023-02-11T09:19:33.711Z,95160.00
2023-02-11T09:19:45.384Z,95160.00
2023-02-11T09:19:56.700Z,95160.00
2023-02-11T09:20:10.706Z,95160.00
2023-02-11T09:20:20.049Z,95162.00
2023-02-11T09:20:31.614Z,95160.00
2023-02-11T09:20:42.954Z,95160.00
2023-02-11T09:20:54.517Z,95162.00
2023-02-11T09:21:05.838Z,95162.00
2023-02-11T09:21:17.419Z,95158.00
2023-02-11T09:21:28.745Z,95162.00
2023-02-11T09:21:40.352Z,95160.00
2023-02-11T09:21:51.707Z,95160.00
2023-02-11T09:22:03.291Z,95162.00
2023-02-11T09:22:14.610Z,95160.00
2023-02-11T09:22:26.184Z,95162.00
2023-02-11T09:22:37.507Z,95160.00
2023-02-11T09:22:49.083Z,95158.00
2023-02-11T09:23:00.397Z,95162.00
2023-02-11T09:23:11.972Z,95160.00
2023-02-11T09:23:23.292Z,95158.00
2023-02-11T09:23:34.871Z,95158.00
2023-02-11T09:23:46.177Z,95156.00
2023-02-11T09:23:57.763Z,95158.00
2023-02-11T09:24:09.157Z,95158.00
2023-02-11T09:24:20.730Z,95154.00
2023-02-11T09:24:32.032Z,95158.00
2023-02-11T09:24:43.616Z,95156.00
2023-02-11T09:24:54.985Z,95156.00
2023-02-11T09:25:06.519Z,95156.00
2023-02-11T09:25:17.845Z,95154.00
2023-02-11T09:25:29.424Z,95156.00
2023-02-11T09:25:40.779Z,95156.00
2023-02-11T09:25:52.719Z,95154.00
2023-02-11T09:26:05.108Z,95154.00
2023-02-11T09:26:15.018Z,95154.00
2023-02-11T09:26:26.605Z,95154.00
2023-02-11T09:26:37.921Z,95156.00
2023-02-11T09:26:49.520Z,95152.00
2023-02-11T09:27:00.825Z,95152.00
2023-02-11T09:27:12.393Z,95156.00
2023-02-11T09:27:23.708Z,95154.00
2023-02-11T09:27:35.293Z,95152.00
2023-02-11T09:27:46.625Z,95156.00
2023-02-11T09:27:58.275Z,95154.00
2023-02-11T09:28:09.765Z,95156.00
2023-02-11T09:28:21.489Z,95154.00
2023-02-11T09:28:32.882Z,95154.00
2023-02-11T09:28:44.488Z,95154.00
2023-02-11T09:28:55.789Z,95152.00
2023-02-11T09:29:07.359Z,95152.00
2023-02-11T09:29:18.690Z,95154.00
2023-02-11T09:29:30.267Z,95154.00
2023-02-11T09:29:41.579Z,95156.00
2023-02-11T09:29:53.190Z,95154.00
2023-02-11T09:30:04.562Z,95156.00
2023-02-11T09:30:16.141Z,95154.00
2023-02-11T09:30:27.468Z,95154.00
2023-02-11T09:30:39.203Z,95156.00
2023-02-11T09:30:51.173Z,95156.00
2023-02-11T09:31:03.113Z,95154.00
2023-02-11T09:31:14.587Z,95154.00
2023-02-11T09:31:26.367Z,95154.00
2023-02-11T09:31:37.962Z,95154.00
2023-02-11T09:31:49.775Z,95154.00
2023-02-11T09:32:01.380Z,95154.00
2023-02-11T09:32:13.188Z,95154.00
2023-02-11T09:32:24.542Z,95156.00
2023-02-11T09:32:36.141Z,95152.00
2023-02-11T09:32:47.464Z,95152.00
2023-02-11T09:32:59.062Z,95152.00
2023-02-11T09:33:10.413Z,95152.00
2023-02-11T09:33:21.989Z,95156.00
2023-02-11T09:33:33.297Z,95154.00
2023-02-11T09:33:44.901Z,95152.00
2023-02-11T09:33:56.211Z,95158.00
2023-02-11T09:34:07.808Z,95156.00
2023-02-11T09:34:19.146Z,95156.00
2023-02-11T09:34:30.731Z,95154.00
2023-02-11T09:34:42.073Z,95156.00
2023-02-11T09:34:53.668Z,95156.00
2023-02-11T09:35:05.034Z,95154.00
2023-02-11T09:35:16.573Z,95156.00
2023-02-11T09:35:27.945Z,95156.00
2023-02-11T09:35:39.514Z,95154.00
2023-02-11T09:35:50.855Z,95158.00
2023-02-11T09:36:02.428Z,95156.00
2023-02-11T09:36:13.735Z,95156.00
2023-02-11T09:36:25.337Z,95158.00
2023-02-11T09:36:36.622Z,95156.00
2023-02-11T09:36:48.208Z,95156.00
2023-02-11T09:36:59.535Z,95156.00
2023-02-11T09:37:11.144Z,95154.00
2023-02-11T09:37:22.484Z,95156.00
2023-02-11T09:37:36.920Z,95154.00
2023-02-11T09:37:44.368Z,95156.00
2023-02-11T09:37:55.679Z,95154.00
2023-02-11T09:38:07.291Z,95156.00
2023-02-11T09:38:18.627Z,95156.00
2023-02-11T09:38:30.250Z,95154.00
2023-02-11T09:38:41.594Z,95156.00
2023-02-11T09:38:53.176Z,95156.00
2023-02-11T09:39:04.527Z,95156.00
2023-02-11T09:39:16.105Z,95152.00
2023-02-11T09:39:27.469Z,95154.00
2023-02-11T09:39:39.030Z,95156.00
2023-02-11T09:39:50.382Z,95154.00
2023-02-11T09:40:01.986Z,95152.00
2023-02-11T09:40:13.283Z,95144.00
2023-02-11T09:40:24.849Z,95156.00
2023-02-11T09:40:36.168Z,95156.00
2023-02-11T09:40:47.819Z,95154.00
2023-02-11T09:40:59.102Z,95156.00
2023-02-11T09:41:10.705Z,95154.00
2023-02-11T09:41:22.042Z,95154.00
2023-02-11T09:41:33.614Z,95154.00
2023-02-11T09:41:44.955Z,95158.00
2023-02-11T09:41:56.533Z,95154.00
2023-02-11T09:42:07.871Z,95154.00
2023-02-11T09:42:19.473Z,95154.00
2023-02-11T09:42:30.806Z,95154.00
2023-02-11T09:42:42.369Z,95156.00
2023-02-11T09:42:53.715Z,95156.00
2023-02-11T09:43:05.319Z,95154.00
2023-02-11T09:43:16.651Z,95156.00
2023-02-11T09:43:28.245Z,95156.00
2023-02-11T09:43:39.600Z,95154.00
2023-02-11T09:43:51.179Z,95156.00
2023-02-11T09:44:02.503Z,95154.00
2023-02-11T09:44:14.071Z,95156.00
2023-02-11T09:44:25.385Z,95156.00
2023-02-11T09:44:36.961Z,95158.00
2023-02-11T09:44:48.325Z,95156.00
2023-02-11T09:44:59.887Z,95156.00
2023-02-11T09:45:11.215Z,95158.00
2023-02-11T09:45:22.798Z,95156.00
2023-02-11T09:45:34.113Z,95156.00
2023-02-11T09:45:45.771Z,95156.00
2023-02-11T09:45:57.119Z,95158.00
2023-02-11T09:46:08.697Z,95158.00
2023-02-11T09:46:20.084Z,95156.00
2023-02-11T09:46:31.771Z,95158.00
2023-02-11T09:46:43.161Z,95158.00
2023-02-11T09:46:54.732Z,95162.00
2023-02-11T09:47:06.049Z,95160.00
2023-02-11T09:47:17.653Z,95162.00
2023-02-11T09:47:28.972Z,95160.00
2023-02-11T09:47:40.565Z,95160.00
2023-02-11T09:47:51.881Z,95162.00
2023-02-11T09:48:06.143Z,95158.00
2023-02-11T09:48:15.568Z,95162.00
2023-02-11T09:48:27.124Z,95162.00
2023-02-11T09:48:38.442Z,95164.00
2023-02-11T09:48:50.053Z,95162.00
2023-02-11T09:49:01.366Z,95162.00
2023-02-11T09:49:12.944Z,95158.00
2023-02-11T09:49:24.271Z,95162.00
2023-02-11T09:49:35.885Z,95162.00
2023-02-11T09:49:47.199Z,95162.00
2023-02-11T09:49:58.805Z,95158.00
2023-02-11T09:50:10.157Z,95162.00
2023-02-11T09:50:21.807Z,95158.00
2023-02-11T09:50:33.144Z,95160.00
2023-02-11T09:50:44.728Z,95162.00
2023-02-11T09:50:56.056Z,95160.00
2023-02-11T09:51:07.662Z,95160.00
2023-02-11T09:51:18.994Z,95160.00
2023-02-11T09:51:30.590Z,95158.00
2023-02-11T09:51:41.919Z,95158.00
2023-02-11T09:51:53.506Z,95156.00
2023-02-11T09:52:04.811Z,95156.00
2023-02-11T09:52:16.376Z,95156.00
2023-02-11T09:52:27.681Z,95156.00
2023-02-11T09:52:39.249Z,95156.00
2023-02-11T09:52:50.560Z,95156.00
2023-02-11T09:53:02.145Z,95156.00
2023-02-11T09:53:13.492Z,95156.00
2023-02-11T09:53:25.095Z,95154.00
2023-02-11T09:53:36.444Z,95156.00
2023-02-11T09:53:48.042Z,95156.00
2023-02-11T09:54:00.940Z,95154.00
2023-02-11T09:54:10.926Z,95154.00
2023-02-11T09:54:22.516Z,95156.00
2023-02-11T09:54:33.848Z,95154.00
2023-02-11T09:54:45.452Z,95156.00
2023-02-11T09:54:56.800Z,95158.00
2023-02-11T09:55:08.403Z,95156.00
2023-02-11T09:55:19.753Z,95156.00
2023-02-11T09:55:31.345Z,95154.00
2023-02-11T09:55:42.701Z,95156.00
2023-02-11T09:55:54.314Z,95156.00
2023-02-11T09:56:05.646Z,95158.00
2023-02-11T09:56:17.226Z,95152.00
2023-02-11T09:56:28.687Z,95152.00
2023-02-11T09:56:40.247Z,95156.00
2023-02-11T09:56:51.568Z,95152.00
2023-02-11T09:57:03.157Z,95154.00
2023-02-11T09:57:27.877Z,95156.00
2023-02-11T09:57:29.027Z,95154.00
2023-02-11T09:57:38.481Z,95152.00
2023-02-11T09:57:50.076Z,95152.00
2023-02-11T09:58:01.444Z,95152.00
2023-02-11T09:58:12.980Z,95156.00
2023-02-11T09:58:24.313Z,95154.00
2023-02-11T09:58:35.934Z,95158.00
2023-02-11T09:58:47.255Z,95152.00
2023-02-11T09:58:58.946Z,95156.00
2023-02-11T09:59:10.288Z,95154.00
2023-02-11T09:59:21.884Z,95154.00
2023-02-11T09:59:33.216Z,95152.00
2023-02-11T09:59:44.819Z,95152.00
2023-02-11T09:59:56.140Z,95156.00
2023-02-11T10:00:07.736Z,95154.00
2023-02-11T10:00:19.060Z,95144.00
2023-02-11T10:00:30.628Z,95152.00
2023-02-11T10:00:41.968Z,95152.00
2023-02-11T10:00:53.722Z,95154.00
2023-02-11T10:01:05.105Z,95152.00
2023-02-11T10:01:17.872Z,95144.00
2023-02-11T10:01:28.644Z,95152.00
2023-02-11T10:01:40.311Z,95144.00
2023-02-11T10:01:51.627Z,95144.00
2023-02-11T10:02:03.177Z,95152.00
2023-02-11T10:02:14.525Z,95144.00
2023-02-11T10:02:26.101Z,95152.00
2023-02-11T10:02:37.450Z,95144.00
2023-02-11T10:02:49.039Z,95142.00
2023-02-11T10:03:00.363Z,95144.00
2023-02-11T10:03:11.944Z,95142.00
2023-02-11T10:03:23.302Z,95144.00
2023-02-11T10:03:34.891Z,95142.00
2023-02-11T10:03:46.194Z,95142.00
2023-02-11T10:03:57.864Z,95142.00
2023-02-11T10:04:09.271Z,95140.00
2023-02-11T10:04:20.916Z,95142.00
2023-02-11T10:04:32.262Z,95140.00
2023-02-11T10:04:43.935Z,95140.00
2023-02-11T10:04:55.229Z,95140.00
2023-02-11T10:05:06.822Z,95140.00
2023-02-11T10:05:18.144Z,95140.00
2023-02-11T10:05:29.738Z,95138.00
2023-02-11T10:05:41.064Z,95140.00
2023-02-11T10:05:52.685Z,95136.00
2023-02-11T10:06:04.022Z,95140.00
2023-02-11T10:06:15.613Z,95138.00
2023-02-11T10:06:26.925Z,95138.00
2023-02-11T10:06:38.502Z,95136.00
2023-02-11T10:06:49.832Z,95136.00
2023-02-11T10:07:01.405Z,95140.00
2023-02-11T10:07:12.724Z,95142.00
2023-02-11T10:07:24.327Z,95140.00
2023-02-11T10:07:35.653Z,95138.00
2023-02-11T10:07:47.221Z,95136.00
2023-02-11T10:07:58.549Z,95140.00
2023-02-11T10:08:10.132Z,95136.00
2023-02-11T10:08:21.434Z,95138.00
2023-02-11T10:08:33.014Z,95138.00
2023-02-11T10:08:44.395Z,95138.00
2023-02-11T10:08:55.935Z,95136.00
2023-02-11T10:09:07.261Z,95138.00
2023-02-11T10:09:18.859Z,95136.00
2023-02-11T10:09:30.175Z,95138.00
2023-02-11T10:09:41.787Z,95136.00
2023-02-11T10:09:53.156Z,95138.00
2023-02-11T10:10:04.773Z,95136.00
2023-02-11T10:10:16.129Z,95136.00
2023-02-11T10:10:27.712Z,95136.00
2023-02-11T10:10:39.027Z,95136.00
2023-02-11T10:10:51.045Z,95138.00
2023-02-11T10:11:02.742Z,95136.00
2023-02-11T10:11:29.666Z,95138.00
2023-02-11T10:11:31.510Z,95134.00
2023-02-11T10:11:37.969Z,95136.00
2023-02-11T10:11:49.286Z,95134.00
2023-02-11T10:12:00.917Z,95134.00
2023-02-11T10:12:12.269Z,95136.00
2023-02-11T10:12:23.860Z,95136.00
2023-02-11T10:12:35.177Z,95134.00
2023-02-11T10:12:46.758Z,95134.00
2023-02-11T10:12:58.106Z,95136.00
2023-02-11T10:13:09.700Z,95136.00
2023-02-11T10:13:21.012Z,95136.00
2023-02-11T10:13:32.588Z,95138.00
2023-02-11T10:13:43.934Z,95136.00
2023-02-11T10:13:55.493Z,95136.00
2023-02-11T10:14:06.804Z,95138.00
2023-02-11T10:14:18.384Z,95136.00
2023-02-11T10:14:29.738Z,95138.00
2023-02-11T10:14:41.308Z,95138.00
2023-02-11T10:14:52.650Z,95138.00
2023-02-11T10:15:04.199Z,95136.00
2023-02-11T10:15:15.522Z,95138.00
2023-02-11T10:15:27.197Z,95136.00
2023-02-11T10:15:38.627Z,95136.00
2023-02-11T10:15:50.277Z,95138.00
2023-02-11T10:16:01.762Z,95138.00
2023-02-11T10:16:13.416Z,95136.00
2023-02-11T10:16:24.704Z,95134.00
2023-02-11T10:16:36.296Z,95136.00
2023-02-11T10:16:47.615Z,95136.00
2023-02-11T10:16:59.215Z,95140.00
2023-02-11T10:17:10.574Z,95140.00
2023-02-11T10:17:22.159Z,95138.00
2023-02-11T10:17:33.486Z,95138.00
2023-02-11T10:17:45.071Z,95140.00
2023-02-11T10:17:56.379Z,95140.00
2023-02-11T10:18:07.974Z,95138.00
2023-02-11T10:18:19.271Z,95138.00
2023-02-11T10:18:30.923Z,95138.00
2023-02-11T10:18:42.244Z,95136.00
2023-02-11T10:18:53.852Z,95134.00
2023-02-11T10:19:05.177Z,95136.00
2023-02-11T10:19:16.757Z,95136.00
2023-02-11T10:19:28.047Z,95134.00
2023-02-11T10:19:39.633Z,95136.00
2023-02-11T10:19:50.949Z,95134.00
2023-02-11T10:20:02.576Z,95132.00
2023-02-11T10:20:16.543Z,95136.00
2023-02-11T10:20:24.043Z,95134.00
2023-02-11T10:20:35.386Z,95132.00
2023-02-11T10:20:46.986Z,95134.00
2023-02-11T10:20:58.295Z,95132.00
2023-02-11T10:21:09.867Z,95130.00
2023-02-11T10:21:21.187Z,95130.00
2023-02-11T10:21:32.780Z,95130.00
2023-02-11T10:21:44.093Z,95130.00
2023-02-11T10:21:55.680Z,95132.00
2023-02-11T10:22:07.022Z,95132.00
2023-02-11T10:22:18.670Z,95130.00
2023-02-11T10:22:30.011Z,95132.00
2023-02-11T10:22:41.593Z,95130.00
2023-02-11T10:22:52.918Z,95130.00
2023-02-11T10:23:04.475Z,95130.00
2023-02-11T10:23:15.819Z,95130.00
2023-02-11T10:23:27.385Z,95130.00
2023-02-11T10:23:38.698Z,95129.00
2023-02-11T10:23:50.294Z,95129.00
2023-02-11T10:24:01.623Z,95129.00
2023-02-11T10:24:13.232Z,95129.00
2023-02-11T10:24:24.608Z,95129.00
2023-02-11T10:24:36.198Z,95129.00
2023-02-11T10:24:47.514Z,95130.00
2023-02-11T10:24:59.088Z,95129.00
2023-02-11T10:25:10.411Z,95130.00
2023-02-11T10:25:22.033Z,95130.00
2023-02-11T10:25:33.379Z,95129.00
2023-02-11T10:25:45.520Z,95130.00
2023-02-11T10:25:57.201Z,95129.00
2023-02-11T10:26:08.576Z,95129.00
2023-02-11T10:26:20.165Z,95130.00
2023-02-11T10:26:31.479Z,95129.00
2023-02-11T10:26:43.043Z,95129.00
2023-02-11T10:26:54.340Z,95129.00
2023-02-11T10:27:05.936Z,95130.00
2023-02-11T10:27:17.256Z,95130.00
2023-02-11T10:27:29.188Z,95129.00
2023-02-11T10:27:40.484Z,95129.00
2023-02-11T10:27:52.094Z,95129.00
2023-02-11T10:28:03.461Z,95129.00
2023-02-11T10:28:15.180Z,95130.00
2023-02-11T10:28:26.540Z,95132.00
2023-02-11T10:28:38.170Z,95130.00
2023-02-11T10:28:49.498Z,95130.00
2023-02-11T10:29:01.094Z,95130.00
2023-02-11T10:29:12.429Z,95130.00
2023-02-11T10:29:24.020Z,95129.00
2023-02-11T10:29:35.342Z,95129.00
2023-02-11T10:29:46.924Z,95132.00
2023-02-11T10:29:58.283Z,95129.00
2023-02-11T10:30:09.879Z,95132.00
2023-02-11T10:30:21.201Z,95132.00
2023-02-11T10:30:32.819Z,95132.00
2023-02-11T10:30:44.275Z,95132.00
2023-02-11T10:30:56.201Z,95130.00
2023-02-11T10:31:08.024Z,95130.00
2023-02-11T10:31:19.499Z,95132.00
2023-02-11T10:31:31.496Z,95132.00
2023-02-11T10:31:42.950Z,95134.00
2023-02-11T10:31:56.587Z,95132.00
2023-02-11T10:32:05.257Z,95132.00
2023-02-11T10:32:16.538Z,95132.00
2023-02-11T10:32:28.155Z,95130.00
2023-02-11T10:32:39.466Z,95130.00
2023-02-11T10:32:51.041Z,95132.00
2023-02-11T10:33:02.357Z,95130.00
2023-02-11T10:33:13.948Z,95132.00
2023-02-11T10:33:25.306Z,95130.00
2023-02-11T10:33:36.941Z,95130.00
2023-02-11T10:33:48.234Z,95130.00
2023-02-11T10:33:59.903Z,95132.00
2023-02-11T10:34:11.224Z,95132.00
2023-02-11T10:34:22.790Z,95130.00
2023-02-11T10:34:34.111Z,95130.00
2023-02-11T10:34:45.699Z,95132.00
2023-02-11T10:34:57.055Z,95132.00
2023-02-11T10:35:08.638Z,95130.00
2023-02-11T10:35:19.989Z,95130.00
2023-02-11T10:35:31.560Z,95130.00
2023-02-11T10:35:42.902Z,95134.00
2023-02-11T10:35:54.496Z,95132.00
2023-02-11T10:36:05.802Z,95130.00
2023-02-11T10:36:17.382Z,95132.00
2023-02-11T10:36:28.692Z,95130.00
2023-02-11T10:36:40.291Z,95132.00
2023-02-11T10:36:51.597Z,95132.00
2023-02-11T10:37:03.184Z,95132.00
2023-02-11T10:37:14.496Z,95132.00
2023-02-11T10:37:26.090Z,95130.00
2023-02-11T10:37:37.560Z,95130.00
2023-02-11T10:37:49.141Z,95129.00
2023-02-11T10:38:00.437Z,95130.00
2023-02-11T10:38:12.045Z,95130.00
2023-02-11T10:38:23.356Z,95130.00
2023-02-11T10:38:34.943Z,95130.00
2023-02-11T10:38:46.293Z,95127.00
2023-02-11T10:38:57.887Z,95127.00
2023-02-11T10:39:09.211Z,95130.00
2023-02-11T10:39:20.839Z,95129.00
2023-02-11T10:39:32.166Z,95129.00
2023-02-11T10:39:43.737Z,95127.00
2023-02-11T10:39:55.074Z,95125.00
2023-02-11T10:40:06.679Z,95129.00
2023-02-11T10:40:17.962Z,95125.00
2023-02-11T10:40:29.566Z,95129.00
2023-02-11T10:40:40.933Z,95125.00
2023-02-11T10:40:52.911Z,95125.00
2023-02-11T10:41:04.675Z,95125.00
2023-02-11T10:41:15.996Z,95123.00
2023-02-11T10:41:27.576Z,95121.00
2023-02-11T10:41:38.882Z,95123.00
2023-02-11T10:41:50.463Z,95125.00
2023-02-11T10:42:01.809Z,95123.00
2023-02-11T10:42:13.440Z,95125.00
2023-02-11T10:42:24.754Z,95123.00
2023-02-11T10:42:36.338Z,95123.00
2023-02-11T10:42:47.701Z,95119.00
2023-02-11T10:42:59.296Z,95117.00
2023-02-11T10:43:10.598Z,95121.00
2023-02-11T10:43:22.187Z,95119.00
2023-02-11T10:43:33.522Z,95119.00
2023-02-11T10:43:45.105Z,95119.00
2023-02-11T10:43:56.440Z,95119.00
2023-02-11T10:44:08.030Z,95121.00
2023-02-11T10:44:19.353Z,95121.00
2023-02-11T10:44:30.950Z,95121.00
2023-02-11T10:44:42.293Z,95119.00
2023-02-11T10:44:53.862Z,95119.00
2023-02-11T10:45:05.174Z,95119.00
2023-02-11T10:45:16.753Z,95121.00
2023-02-11T10:45:28.118Z,95121.00
2023-02-11T10:45:39.681Z,95119.00
2023-02-11T10:45:51.020Z,95119.00
2023-02-11T10:46:02.653Z,95119.00
2023-02-11T10:46:13.999Z,95117.00
2023-02-11T10:46:25.649Z,95117.00
2023-02-11T10:46:37.087Z,95121.00
2023-02-11T10:46:48.752Z,95117.00
2023-02-11T10:47:00.113Z,95117.00
2023-02-11T10:47:11.687Z,95119.00
2023-02-11T10:47:22.991Z,95121.00